Time;durP1;ratioP1;P1;durP2;ratioP2;P2;SDS_P1;SDS_P2;PMS_P1;PMS_P2;Temp;Humidity;BMP_temperature;BMP_pressure;BME280_temperature;BME280_humidity;BME280_pressure;Samples;Min_cycle;Max_cycle;Signal;HPM_P1;HPM_P2
2022/10/12 00:02:18;;;;;;;12.03;9.27;;;;;;;4.70;89.59;101305.69;5102745;28;20482;-68
2022/10/12 00:04:45;;;;;;;12.57;7.90;;;;;;;4.68;89.64;101302.22;5103197;28;20447;-68
2022/10/12 00:07:11;;;;;;;15.33;9.77;;;;;;;4.67;89.56;101304.97;5102499;28;20882;-68
2022/10/12 00:09:40;;;;;;;15.27;8.80;;;;;;;4.66;89.38;101301.47;5102147;28;20490;-68
2022/10/12 00:12:07;;;;;;;12.70;8.20;;;;;;;4.66;89.43;101309.41;5102141;28;20471;-68
2022/10/12 00:14:35;;;;;;;13.27;8.70;;;;;;;4.60;89.35;101312.38;5102790;28;20451;-68
2022/10/12 00:17:02;;;;;;;16.13;9.23;;;;;;;4.56;89.68;101312.59;5102160;28;20472;-68
2022/10/12 00:19:29;;;;;;;14.03;9.37;;;;;;;4.51;89.47;101311.03;5102026;28;20430;-68
2022/10/12 00:21:56;;;;;;;12.03;7.90;;;;;;;4.50;89.56;101311.97;5102229;28;20475;-68
2022/10/12 00:24:22;;;;;;;11.43;8.40;;;;;;;4.45;89.23;101313.97;5102382;28;20463;-68
2022/10/12 00:26:51;;;;;;;19.13;8.87;;;;;;;4.45;89.02;101313.97;5102017;28;21077;-68
2022/10/12 00:29:18;;;;;;;12.53;8.73;;;;;;;4.42;88.85;101318.56;5102716;28;20432;-68
2022/10/12 00:31:45;;;;;;;12.80;9.00;;;;;;;4.38;89.07;101317.84;5102125;28;20475;-68
2022/10/12 00:34:11;;;;;;;12.07;9.93;;;;;;;4.36;89.26;101325.03;5102208;28;20491;-68
2022/10/12 00:36:38;;;;;;;12.93;7.87;;;;;;;4.38;89.22;101328.44;5102091;28;20479;-68
2022/10/12 00:39:07;;;;;;;17.47;8.50;;;;;;;4.35;89.26;101323.28;5101838;28;20494;-68
2022/10/12 00:41:36;;;;;;;12.13;7.63;;;;;;;4.32;89.13;101320.78;5101857;28;20466;-68
2022/10/12 00:44:04;;;;;;;11.83;8.70;;;;;;;4.30;89.04;101331.44;5102038;28;20483;-68
2022/10/12 00:46:34;;;;;;;16.50;8.03;;;;;;;4.26;88.90;101329.03;5101712;28;20501;-68
2022/10/12 00:49:06;;;;;;;16.80;7.57;;;;;;;4.24;89.05;101325.63;5102031;28;20427;-68
2022/10/12 00:51:33;;;;;;;10.40;7.77;;;;;;;4.21;88.80;101318.66;5101198;28;20472;-68
2022/10/12 00:54:03;;;;;;;9.90;6.43;;;;;;;4.17;88.79;101326.81;5101342;28;20489;-68
2022/10/12 00:56:32;;;;;;;8.73;7.20;;;;;;;4.14;89.06;101315.44;5101614;28;20471;-68
2022/10/12 00:59:01;;;;;;;16.90;7.37;;;;;;;4.13;88.93;101324.34;5102016;28;20986;-68
2022/10/12 01:01:29;;;;;;;13.10;7.13;;;;;;;4.18;89.01;101328.53;5101349;28;20486;-68
2022/10/12 01:03:56;;;;;;;10.37;6.57;;;;;;;4.16;89.00;101325.97;5101943;28;20439;-68
2022/10/12 01:06:23;;;;;;;10.77;7.67;;;;;;;4.14;89.22;101323.38;5101649;28;20527;-68
2022/10/12 01:08:50;;;;;;;10.20;6.80;;;;;;;4.09;89.08;101314.81;5101165;28;20463;-68
2022/10/12 01:11:17;;;;;;;13.20;6.90;;;;;;;4.06;89.26;101325.56;5101152;28;20467;-68
2022/10/12 01:13:43;;;;;;;9.17;6.80;;;;;;;4.02;89.22;101321.31;5101899;28;20563;-68
2022/10/12 01:16:15;;;;;;;11.00;6.70;;;;;;;4.03;89.33;101317.75;5101302;28;20475;-68
2022/10/12 01:18:46;;;;;;;9.53;6.30;;;;;;;4.01;89.31;101314.34;5101021;28;20945;-68
2022/10/12 01:21:17;;;;;;;8.83;6.40;;;;;;;4.10;89.35;101318.34;5100942;28;20458;-68
2022/10/12 01:24:23;;;;;;;10.17;6.93;;;;;;;4.04;88.75;101311.53;5101250;28;20439;-68
2022/10/12 01:27:12;;;;;;;9.57;6.77;;;;;;;3.99;88.97;101318.81;5079910;28;20486;-68
2022/10/12 01:30:05;;;;;;;12.57;7.03;;;;;;;3.92;89.09;101312.09;5091561;28;20451;-68
2022/10/12 01:32:37;;;;;;;11.40;7.10;;;;;;;3.85;89.19;101314.16;5100708;28;20446;-68
2022/10/12 01:35:08;;;;;;;10.97;6.30;;;;;;;3.79;89.51;101313.63;5101205;28;20454;-68
2022/10/12 01:37:41;;;;;;;10.13;7.13;;;;;;;3.74;89.52;101312.03;5100558;28;20497;-68
2022/10/12 01:40:12;;;;;;;13.93;7.13;;;;;;;3.78;89.74;101302.16;5100235;28;20473;-68
2022/10/12 01:42:40;;;;;;;15.63;7.03;;;;;;;3.78;89.70;101307.44;5101886;28;20508;-68
2022/10/12 01:45:10;;;;;;;12.53;7.33;;;;;;;3.80;89.75;101302.09;5100696;28;20454;-68
2022/10/12 01:47:38;;;;;;;9.60;7.33;;;;;;;3.79;90.15;101308.34;5100964;28;20456;-68
2022/10/12 01:50:07;;;;;;;11.67;7.00;;;;;;;3.77;90.04;101298.66;5100891;28;20440;-68
2022/10/12 01:52:40;;;;;;;11.97;6.40;;;;;;;3.79;89.86;101301.25;5100602;28;20998;-68
2022/10/12 01:55:17;;;;;;;9.50;6.70;;;;;;;3.76;89.54;101294.28;5100142;28;20691;-68
2022/10/12 01:58:03;;;;;;;8.53;6.47;;;;;;;3.77;89.62;101292.53;5101163;28;20483;-68
2022/10/12 02:00:39;;;;;;;10.30;7.93;;;;;;;3.75;89.45;101289.94;5100738;28;20471;-68
2022/10/12 02:03:10;;;;;;;10.17;6.47;;;;;;;3.72;89.05;101284.78;5101286;28;20434;-68
2022/10/12 02:05:40;;;;;;;8.90;7.13;;;;;;;3.68;89.13;101299.09;5100573;28;20544;-68
2022/10/12 02:08:11;;;;;;;14.03;6.90;;;;;;;3.68;89.10;101282.34;5100709;28;20451;-68
2022/10/12 02:10:42;;;;;;;10.07;8.00;;;;;;;3.65;89.14;101282.53;5099874;28;20467;-68
2022/10/12 02:13:12;;;;;;;12.60;7.80;;;;;;;3.63;89.18;101294.94;5101099;28;20467;-68
2022/10/12 02:15:43;;;;;;;15.53;8.30;;;;;;;3.59;89.41;101281.00;5100307;28;20477;-68
2022/10/12 02:18:13;;;;;;;20.73;8.70;;;;;;;3.57;89.52;101281.06;5099679;28;20523;-68
2022/10/12 02:20:40;;;;;;;7.87;7.00;;;;;;;3.56;89.55;101276.72;5100598;28;20471;-68
2022/10/12 02:23:07;;;;;;;13.20;8.13;;;;;;;3.51;89.48;101283.16;5101072;28;20431;-68
2022/10/12 02:25:35;;;;;;;10.23;7.80;;;;;;;3.49;89.39;101277.94;5099918;28;20467;-68
2022/10/12 02:28:05;;;;;;;10.03;7.17;;;;;;;3.45;89.45;101280.78;5100727;28;20474;-68
2022/10/12 02:30:37;;;;;;;13.17;7.23;;;;;;;3.39;89.32;101280.13;5100049;28;20470;-68
2022/10/12 02:33:08;;;;;;;11.23;7.20;;;;;;;3.38;88.98;101277.53;5100701;28;20487;-68
2022/10/12 02:35:38;;;;;;;9.63;7.20;;;;;;;3.38;89.30;101278.38;5100081;28;20528;-68
2022/10/12 02:38:09;;;;;;;10.07;6.93;;;;;;;3.40;89.11;101278.31;5100315;28;20459;-69
2022/10/12 02:40:39;;;;;;;13.03;7.57;;;;;;;3.33;89.09;101269.84;5099756;28;20479;-68
2022/10/12 02:43:16;;;;;;;8.47;7.03;;;;;;;3.33;89.33;101264.56;5101704;28;20428;-68
2022/10/12 02:45:45;;;;;;;8.00;6.90;;;;;;;3.33;89.62;101259.25;5104396;28;20475;-68
2022/10/12 02:48:16;;;;;;;9.87;7.67;;;;;;;3.33;89.49;101255.75;5104020;28;20454;-68
2022/10/12 02:50:43;;;;;;;16.70;7.50;;;;;;;3.34;89.55;101257.47;5103826;28;20475;-69
2022/10/12 02:53:11;;;;;;;10.13;7.20;;;;;;;3.35;89.85;101257.41;5104436;28;20467;-68
2022/10/12 02:55:39;;;;;;;11.13;7.67;;;;;;;3.33;89.60;101253.09;5103518;28;20466;-68
2022/10/12 02:58:05;;;;;;;10.43;7.27;;;;;;;3.33;89.57;101256.63;5104454;28;20454;-68
2022/10/12 03:00:34;;;;;;;11.20;7.10;;;;;;;3.31;89.22;101245.22;5103911;28;20471;-68
2022/10/12 03:03:00;;;;;;;11.57;6.50;;;;;;;3.27;89.14;101246.31;5104748;28;20463;-68
2022/10/12 03:05:29;;;;;;;11.83;8.70;;;;;;;3.32;89.35;101248.75;5103683;28;20466;-69
2022/10/12 03:07:55;;;;;;;13.60;7.93;;;;;;;3.33;89.03;101248.69;5104207;28;20492;-68
2022/10/12 03:10:22;;;;;;;10.37;6.60;;;;;;;3.30;89.02;101243.53;5102672;28;20479;-68
2022/10/12 03:12:49;;;;;;;9.27;6.20;;;;;;;3.24;89.14;101245.59;5104681;28;20439;-68
2022/10/12 03:15:15;;;;;;;10.10;6.87;;;;;;;3.19;89.02;101236.09;5103360;28;20451;-68
2022/10/12 03:17:42;;;;;;;9.90;6.43;;;;;;;3.20;89.26;101235.16;5103578;28;20449;-69
2022/10/12 03:20:10;;;;;;;9.63;6.50;;;;;;;3.21;89.10;101243.94;5102753;28;20431;-69
2022/10/12 03:22:38;;;;;;;9.60;6.47;;;;;;;3.18;89.18;101238.81;5104126;28;20484;-69
2022/10/12 03:25:06;;;;;;;14.67;6.80;;;;;;;3.15;89.17;101237.16;5103332;28;20454;-69
2022/10/12 03:27:32;;;;;;;12.83;6.50;;;;;;;3.16;88.92;101240.63;5103400;28;20469;-69
2022/10/12 03:29:59;;;;;;;10.80;7.43;;;;;;;3.11;88.84;101238.22;5103935;28;20443;-68
2022/10/12 03:32:26;;;;;;;9.50;6.73;;;;;;;3.10;88.97;101241.78;5102818;28;20486;-69
2022/10/12 03:34:52;;;;;;;10.33;6.80;;;;;;;3.07;89.05;101233.97;5103568;28;20548;-69
2022/10/12 03:37:19;;;;;;;15.10;8.30;;;;;;;3.09;89.52;101233.91;5102870;28;20475;-69
2022/10/12 03:39:47;;;;;;;11.03;6.60;;;;;;;3.07;89.47;101231.34;5102940;28;20458;-69
2022/10/12 03:42:14;;;;;;;11.30;6.60;;;;;;;3.04;89.34;101231.50;5103290;28;20474;-69
2022/10/12 03:44:41;;;;;;;8.17;6.40;;;;;;;3.01;89.29;101227.19;5103501;28;20454;-68
2022/10/12 03:47:08;;;;;;;13.20;6.17;;;;;;;3.01;89.59;101226.34;5102908;28;20493;-68
2022/10/12 03:49:34;;;;;;;8.37;6.50;;;;;;;3.00;89.43;101224.63;5102794;28;20441;-69
2022/10/12 03:52:01;;;;;;;12.40;8.00;;;;;;;2.96;89.65;101226.53;5103176;28;20526;-68
2022/10/12 03:54:28;;;;;;;11.10;7.00;;;;;;;2.89;89.33;101224.25;5102087;28;20582;-68
2022/10/12 03:56:56;;;;;;;9.83;7.10;;;;;;;2.90;89.39;101229.47;5102776;28;20479;-69
2022/10/12 03:59:23;;;;;;;14.53;8.20;;;;;;;2.91;89.39;101225.88;5103040;28;20439;-68
2022/10/12 04:01:50;;;;;;;10.30;6.80;;;;;;;2.86;89.12;101225.22;5102862;28;20478;-69
2022/10/12 04:04:16;;;;;;;11.33;7.73;;;;;;;2.81;89.25;101219.28;5103173;28;20432;-69
2022/10/12 04:06:43;;;;;;;13.80;7.90;;;;;;;2.87;89.20;101224.31;5102800;28;20468;-69
2022/10/12 04:09:10;;;;;;;10.13;7.63;;;;;;;2.88;89.44;101222.53;5101824;28;20482;-68
2022/10/12 04:11:37;;;;;;;10.07;7.40;;;;;;;2.89;89.19;101225.09;5102695;28;20489;-68
2022/10/12 04:14:05;;;;;;;9.40;7.07;;;;;;;2.88;89.11;101218.09;5103095;28;20522;-69
2022/10/12 04:16:31;;;;;;;7.87;6.70;;;;;;;2.86;89.08;101222.59;5102327;28;20477;-68
2022/10/12 04:18:58;;;;;;;8.67;6.60;;;;;;;2.79;89.33;101219.34;5102041;28;20460;-69
2022/10/12 04:21:25;;;;;;;10.90;6.67;;;;;;;2.78;89.34;101211.53;5102065;28;20499;-69
2022/10/12 04:23:52;;;;;;;9.67;6.50;;;;;;;2.79;89.51;101211.41;5102565;28;20452;-68
2022/10/12 04:26:19;;;;;;;14.67;8.07;;;;;;;2.85;89.28;101204.16;5102134;28;21192;-68
2022/10/12 04:28:45;;;;;;;13.03;6.70;;;;;;;2.73;89.49;101203.78;5102735;28;20458;-69
2022/10/12 04:31:14;;;;;;;9.10;7.70;;;;;;;2.69;89.75;101202.22;5101736;28;20472;-69
2022/10/12 04:33:40;;;;;;;15.10;7.63;;;;;;;2.66;89.84;101194.41;5102604;28;21121;-68
2022/10/12 04:36:07;;;;;;;10.40;7.83;;;;;;;2.66;89.72;101191.78;5102128;28;20486;-68
2022/10/12 04:38:34;;;;;;;15.97;7.53;;;;;;;2.66;89.79;101186.50;5101704;28;20481;-69
2022/10/12 04:41:01;;;;;;;9.23;6.70;;;;;;;2.64;89.62;101197.13;5100179;28;20507;-69
2022/10/12 04:43:28;;;;;;;12.10;8.20;;;;;;;2.62;89.51;101187.53;5098068;28;20444;-70
2022/10/12 04:45:55;;;;;;;9.40;6.67;;;;;;;2.59;89.45;101191.19;5100688;28;20508;-70
2022/10/12 04:48:24;;;;;;;13.13;6.70;;;;;;;2.58;89.55;101189.44;5101014;28;20462;-69
2022/10/12 04:50:51;;;;;;;12.10;7.07;;;;;;;2.57;89.47;101185.13;5100065;28;20474;-69
2022/10/12 04:53:18;;;;;;;13.90;7.20;;;;;;;2.56;89.51;101188.66;5100993;28;20437;-69
2022/10/12 04:55:45;;;;;;;10.80;8.90;;;;;;;2.53;89.30;101194.06;5100237;28;20470;-69
2022/10/12 04:58:11;;;;;;;16.43;7.03;;;;;;;2.50;89.24;101188.94;5100348;28;20485;-69
2022/10/12 05:00:38;;;;;;;10.00;7.10;;;;;;;2.50;89.12;101190.72;5100766;28;20470;-70
2022/10/12 05:03:05;;;;;;;12.83;7.00;;;;;;;2.49;89.25;101186.38;5101203;28;20434;-69
2022/10/12 05:05:34;;;;;;;12.40;7.10;;;;;;;2.51;89.42;101189.78;5098780;28;20472;-69
2022/10/12 05:08:01;;;;;;;10.73;7.37;;;;;;;2.48;89.24;101184.63;5101023;28;20476;-69
2022/10/12 05:10:28;;;;;;;9.60;6.40;;;;;;;2.47;89.00;101185.59;5100161;28;20474;-69
2022/10/12 05:12:55;;;;;;;9.37;7.00;;;;;;;2.42;89.17;101191.03;5100304;28;20431;-69
2022/10/12 05:15:22;;;;;;;13.70;7.67;;;;;;;2.39;89.22;101194.66;5099856;28;20718;-70
2022/10/12 05:17:49;;;;;;;11.00;6.70;;;;;;;2.39;89.29;101192.03;5100648;28;20457;-70
2022/10/12 05:20:15;;;;;;;16.00;7.40;;;;;;;2.38;89.35;101185.03;5099183;28;20435;-69
2022/10/12 05:22:44;;;;;;;14.93;7.63;;;;;;;2.41;89.39;101178.75;5101298;28;20458;-70
2022/10/12 05:25:10;;;;;;;10.53;7.37;;;;;;;2.39;89.35;101177.97;5099606;28;20450;-70
2022/10/12 05:27:37;;;;;;;10.33;7.27;;;;;;;2.42;89.03;101186.63;5099948;28;20465;-69
2022/10/12 05:30:05;;;;;;;11.70;7.43;;;;;;;2.40;88.94;101180.56;5101328;28;20492;-69
2022/10/12 05:32:32;;;;;;;12.27;7.47;;;;;;;2.42;88.84;101183.13;5100211;28;20469;-69
2022/10/12 05:34:58;;;;;;;13.53;7.30;;;;;;;2.40;88.71;101182.34;5099640;28;20488;-69
2022/10/12 05:37:25;;;;;;;12.73;6.20;;;;;;;2.40;88.76;101179.72;5099989;28;21259;-69
2022/10/12 05:39:53;;;;;;;9.57;6.57;;;;;;;2.39;88.45;101178.81;5099584;28;20457;-69
2022/10/12 05:42:20;;;;;;;12.63;7.37;;;;;;;2.38;88.29;101179.75;5099041;28;20474;-68
2022/10/12 05:44:47;;;;;;;14.13;7.63;;;;;;;2.38;88.37;101184.19;5100636;28;20457;-69
2022/10/12 05:47:14;;;;;;;15.93;8.17;;;;;;;2.35;88.44;101176.41;5099802;28;20481;-69
2022/10/12 05:49:40;;;;;;;17.27;8.63;;;;;;;2.36;88.43;101181.63;5098925;28;20922;-69
2022/10/12 05:52:07;;;;;;;11.10;6.77;;;;;;;2.42;88.63;101178.69;5100229;28;20500;-69
2022/10/12 05:54:34;;;;;;;11.30;7.00;;;;;;;2.40;88.74;101177.06;5099316;28;21020;-68
2022/10/12 05:57:02;;;;;;;14.00;7.63;;;;;;;2.49;89.10;101179.31;5098651;28;20526;-69
2022/10/12 05:59:29;;;;;;;10.73;7.10;;;;;;;2.66;89.19;101188.25;5100458;28;20483;-69
2022/10/12 06:01:55;;;;;;;11.97;7.00;;;;;;;2.78;88.91;101185.09;5100354;28;20487;-69
2022/10/12 06:04:22;;;;;;;8.53;6.53;;;;;;;2.93;88.93;101187.03;5099297;28;20435;-69
2022/10/12 06:06:49;;;;;;;9.73;6.20;;;;;;;2.97;88.65;101187.78;5099505;28;20488;-69
2022/10/12 06:09:16;;;;;;;14.23;7.47;;;;;;;2.95;88.44;101190.50;5100129;28;20485;-69
2022/10/12 06:11:43;;;;;;;16.77;8.10;;;;;;;3.21;88.28;101199.00;5098883;28;20482;-69
2022/10/12 06:14:11;;;;;;;16.17;8.10;;;;;;;3.64;88.42;101181.16;5100564;28;20486;-69
2022/10/12 06:16:38;;;;;;;17.20;8.13;;;;;;;4.02;87.75;101183.72;5099234;28;20884;-69
2022/10/12 06:19:05;;;;;;;16.30;7.80;;;;;;;4.45;86.68;101186.03;5102718;28;20512;-69
2022/10/12 06:21:32;;;;;;;13.50;8.07;;;;;;;4.67;85.60;101178.69;5104026;28;20989;-69
2022/10/12 06:23:58;;;;;;;15.43;8.10;;;;;;;4.92;84.42;101176.56;5103762;28;20467;-69
2022/10/12 06:26:25;;;;;;;12.80;8.00;;;;;;;5.28;83.21;101171.06;5103106;28;20474;-69
2022/10/12 06:28:52;;;;;;;16.20;8.80;;;;;;;5.58;80.66;101175.59;5104110;28;20451;-69
2022/10/12 06:31:20;;;;;;;10.50;7.33;;;;;;;5.97;79.76;101179.63;5103915;28;20460;-68
2022/10/12 06:33:49;;;;;;;12.03;7.40;;;;;;;5.82;78.35;101184.84;5103498;28;20515;-69
2022/10/12 06:36:17;;;;;;;11.07;7.83;;;;;;;5.72;78.77;101188.09;5104016;28;20489;-68
2022/10/12 06:38:43;;;;;;;10.70;7.33;;;;;;;6.38;78.53;101184.31;5102664;28;20523;-68
2022/10/12 06:41:10;;;;;;;13.80;7.50;;;;;;;7.24;74.75;101183.56;5102441;28;20729;-69
2022/10/12 06:43:37;;;;;;;14.53;7.40;;;;;;;8.50;69.22;101171.88;5104250;28;20911;-69
2022/10/12 06:46:04;;;;;;;11.37;7.60;;;;;;;9.83;64.21;101177.56;5103291;28;20486;-69
2022/10/12 06:48:32;;;;;;;11.20;7.17;;;;;;;10.25;60.81;101183.34;5102731;28;20878;-69
2022/10/12 06:50:59;;;;;;;16.40;6.20;;;;;;;10.68;58.73;101182.78;5103438;28;20497;-69
2022/10/12 06:53:27;;;;;;;11.60;6.70;;;;;;;10.28;59.44;101182.28;5103987;28;20477;-69
2022/10/12 06:55:54;;;;;;;10.77;6.20;;;;;;;10.35;59.36;101180.88;5101401;28;21143;-69
2022/10/12 06:58:21;;;;;;;15.27;6.03;;;;;;;9.05;63.00;101184.03;5104028;28;20447;-69
2022/10/12 07:00:48;;;;;;;8.43;5.83;;;;;;;8.54;65.85;101189.34;5103082;28;21013;-69
2022/10/12 07:03:15;;;;;;;8.33;5.73;;;;;;;8.93;67.26;101172.41;5102961;28;20462;-69
2022/10/12 07:05:43;;;;;;;12.17;6.53;;;;;;;8.84;67.18;101181.91;5102770;28;20471;-69
2022/10/12 07:08:10;;;;;;;14.00;6.80;;;;;;;9.27;65.91;101180.72;5103817;28;20506;-69
2022/10/12 07:10:37;;;;;;;10.43;5.63;;;;;;;10.45;63.39;101179.22;5101508;28;20586;-69
2022/10/12 07:13:04;;;;;;;9.20;5.57;;;;;;;11.75;58.47;101193.13;5103937;28;20435;-69
2022/10/12 07:15:30;;;;;;;9.50;5.20;;;;;;;11.73;57.12;101189.72;5102563;28;20510;-70
2022/10/12 07:17:57;;;;;;;10.03;5.20;;;;;;;11.05;58.48;101190.59;5102318;28;20458;-70
2022/10/12 07:20:24;;;;;;;10.13;5.90;;;;;;;9.98;61.34;101180.91;5103175;28;20447;-70
2022/10/12 07:22:52;;;;;;;16.73;5.67;;;;;;;8.86;65.00;101187.16;5103282;28;20511;-68
2022/10/12 07:25:21;;;;;;;8.20;5.53;;;;;;;8.35;68.36;101189.69;5101062;28;20443;-67
2022/10/12 07:27:47;;;;;;;9.20;6.10;;;;;;;7.53;71.26;101195.91;5103320;28;20459;-68
2022/10/12 07:30:14;;;;;;;9.10;6.20;;;;;;;6.66;75.01;101201.28;5101956;28;20439;-68
2022/10/12 07:32:43;;;;;;;7.50;5.53;;;;;;;6.36;77.23;101196.84;5102330;28;20436;-68
2022/10/12 07:35:10;;;;;;;13.57;6.53;;;;;;;6.86;78.08;101203.59;5102640;28;20483;-68
2022/10/12 07:37:36;;;;;;;11.37;6.17;;;;;;;8.21;75.60;101195.94;5103532;28;20431;-68
2022/10/12 07:40:06;;;;;;;11.20;5.77;;;;;;;10.53;68.34;101198.16;5100726;28;20487;-68
2022/10/12 07:42:33;;;;;;;7.00;5.23;;;;;;;11.54;58.92;101199.22;5102933;28;20440;-69
2022/10/12 07:45:00;;;;;;;12.00;5.80;;;;;;;13.02;55.00;101192.31;5103117;28;20513;-69
2022/10/12 07:47:26;;;;;;;9.77;5.17;;;;;;;14.41;49.96;101198.72;5101836;28;20479;-69
2022/10/12 07:49:53;;;;;;;8.47;5.30;;;;;;;16.59;45.11;101183.97;5102038;28;20591;-69
2022/10/12 07:52:20;;;;;;;7.17;5.07;;;;;;;17.11;43.45;101179.41;5102398;28;20497;-69
2022/10/12 07:54:47;;;;;;;7.40;4.63;;;;;;;17.21;43.19;101178.47;5101694;28;20547;-69
2022/10/12 07:57:15;;;;;;;7.73;4.30;;;;;;;17.12;42.30;101172.19;5101383;28;21062;-69
2022/10/12 07:59:42;;;;;;;6.90;4.97;;;;;;;17.88;42.62;101170.47;5103022;28;20888;-69
2022/10/12 08:02:09;;;;;;;9.80;5.13;;;;;;;18.46;40.90;101173.22;5102061;28;20488;-69
2022/10/12 08:04:36;;;;;;;8.20;5.23;;;;;;;16.68;42.86;101167.66;5101897;28;20430;-69
2022/10/12 08:07:03;;;;;;;8.40;5.60;;;;;;;16.80;44.20;101168.22;5101904;28;20479;-69
2022/10/12 08:09:34;;;;;;;8.97;5.47;;;;;;;14.69;49.03;101170.16;5101803;28;20482;-69
2022/10/12 08:12:01;;;;;;;11.23;5.00;;;;;;;15.04;48.74;101171.31;5101588;28;20472;-69
2022/10/12 08:14:29;;;;;;;9.70;5.50;;;;;;;14.79;49.21;101176.34;5102192;28;20542;-69
2022/10/12 08:16:56;;;;;;;6.43;4.80;;;;;;;15.16;48.79;101177.38;5102072;28;20478;-69
2022/10/12 08:19:23;;;;;;;10.63;4.50;;;;;;;14.95;49.38;101191.91;5100600;28;20478;-69
2022/10/12 08:21:51;;;;;;;9.20;4.07;;;;;;;16.37;44.65;101173.50;5102194;28;20483;-69
2022/10/12 08:24:18;;;;;;;6.20;4.70;;;;;;;16.65;44.36;101176.06;5101551;28;20482;-68
2022/10/12 08:26:45;;;;;;;7.17;4.23;;;;;;;16.44;45.33;101170.16;5100608;28;20490;-68
2022/10/12 08:29:12;;;;;;;8.33;4.20;;;;;;;16.78;44.51;101172.13;5102173;28;20461;-68
2022/10/12 08:31:48;;;;;;;8.73;4.60;;;;;;;16.45;45.35;101169.16;5101655;28;20821;-68
2022/10/12 08:34:15;;;;;;;10.67;4.67;;;;;;;18.05;42.06;101166.78;5101393;28;20453;-68
2022/10/12 08:36:41;;;;;;;7.37;4.00;;;;;;;16.93;44.06;101170.56;5101311;28;20483;-68
2022/10/12 08:39:08;;;;;;;8.13;4.07;;;;;;;17.98;42.00;101171.13;5100638;28;20503;-68
2022/10/12 08:41:48;;;;;;;10.70;4.53;;;;;;;17.35;43.31;101179.72;5100630;28;20998;-69
2022/10/12 08:44:39;;;;;;;10.70;4.70;;;;;;;16.81;44.75;101183.44;5101861;28;20438;-69
2022/10/12 08:47:19;;;;;;;8.20;4.40;;;;;;;17.37;43.71;101173.13;5100417;28;21213;-69
2022/10/12 08:49:46;;;;;;;7.60;4.30;;;;;;;18.83;42.07;101172.69;5101325;28;20454;-69
2022/10/12 08:52:23;;;;;;;9.77;4.40;;;;;;;17.80;43.73;101179.38;5101454;28;20473;-69
2022/10/12 08:54:49;;;;;;;7.40;4.63;;;;;;;17.30;44.73;101161.28;5099343;28;20454;-69
2022/10/12 08:57:18;;;;;;;8.77;5.20;;;;;;;17.47;44.94;101173.84;5101450;28;20488;-70
2022/10/12 08:59:45;;;;;;;7.23;5.00;;;;;;;18.95;41.47;101167.75;5101637;28;20476;-69
2022/10/12 09:02:34;;;;;;;5.93;4.33;;;;;;;18.40;42.03;101162.06;5100146;28;20467;-69
2022/10/12 09:05:04;;;;;;;8.47;4.57;;;;;;;20.29;39.82;101161.34;5101142;28;20994;-70
2022/10/12 09:07:33;;;;;;;6.23;3.90;;;;;;;19.81;39.42;101168.78;5100840;28;20468;-69
2022/10/12 09:10:10;;;;;;;8.67;4.50;;;;;;;20.15;38.21;101155.84;5099596;28;20477;-69
2022/10/12 09:12:44;;;;;;;7.03;4.30;;;;;;;19.29;40.71;101158.50;5101136;28;20438;-69
2022/10/12 09:15:16;;;;;;;7.90;4.83;;;;;;;19.04;41.18;101152.31;5100150;28;20494;-69
2022/10/12 09:17:46;;;;;;;7.60;4.57;;;;;;;18.59;42.00;101151.88;5100419;28;20423;-69
2022/10/12 09:20:18;;;;;;;7.13;4.30;;;;;;;19.06;41.67;101151.16;5100527;28;20474;-69
2022/10/12 09:22:48;;;;;;;6.13;4.20;;;;;;;18.63;42.01;101145.94;5101887;28;20463;-69
2022/10/12 09:25:18;;;;;;;8.07;4.60;;;;;;;17.74;44.85;101152.13;5098215;28;20453;-69
2022/10/12 09:27:46;;;;;;;9.03;4.10;;;;;;;17.66;45.15;101145.69;5101594;28;20863;-69
2022/10/12 09:30:14;;;;;;;8.73;4.40;;;;;;;17.58;45.90;101142.97;5100604;28;20482;-69
2022/10/12 09:32:53;;;;;;;10.57;4.47;;;;;;;18.06;44.36;101141.38;5099907;28;20428;-69
2022/10/12 09:35:19;;;;;;;10.30;4.83;;;;;;;17.55;45.74;101139.72;5100158;28;20502;-69
2022/10/12 09:37:50;;;;;;;8.50;4.47;;;;;;;18.02;45.27;101136.50;5101033;28;20432;-69
2022/10/12 09:40:23;;;;;;;10.20;4.83;;;;;;;19.32;41.96;101147.28;5097948;28;20516;-69
2022/10/12 09:42:51;;;;;;;10.17;4.80;;;;;;;19.76;41.83;101141.34;5101268;28;20459;-68
2022/10/12 09:45:22;;;;;;;9.77;4.13;;;;;;;20.29;40.03;101134.19;5099999;28;20463;-69
2022/10/12 09:48:20;;;;;;;10.83;4.10;;;;;;;21.34;37.99;101128.84;5099812;28;20508;-69
2022/10/12 09:50:52;;;;;;;10.03;4.00;;;;;;;21.48;38.04;101127.16;5100312;28;20470;-69
2022/10/12 09:53:23;;;;;;;6.77;3.60;;;;;;;20.78;38.68;101122.00;5099158;28;20524;-69
2022/10/12 09:56:06;;;;;;;5.87;3.27;;;;;;;21.90;36.22;101129.06;5099450;28;20513;-69
2022/10/12 09:58:40;;;;;;;9.30;3.90;;;;;;;21.45;38.60;101134.59;5100660;28;20453;-70
2022/10/12 10:01:15;;;;;;;6.30;4.17;;;;;;;20.86;38.53;101126.50;5098682;28;20804;-70
2022/10/12 10:03:43;;;;;;;10.90;4.27;;;;;;;22.16;36.85;101124.91;5100653;28;20812;-70
2022/10/12 10:06:10;;;;;;;6.50;3.10;;;;;;;22.09;36.86;101113.13;5100044;28;20479;-70
2022/10/12 10:08:41;;;;;;;10.93;3.43;;;;;;;19.45;41.76;101119.63;5099395;28;20460;-70
2022/10/12 10:11:14;;;;;;;7.27;3.67;;;;;;;19.58;43.18;101117.16;5098818;28;20482;-70
2022/10/12 10:13:47;;;;;;;10.03;3.80;;;;;;;19.95;41.66;101112.91;5100964;28;21026;-70
2022/10/12 10:16:15;;;;;;;9.20;3.30;;;;;;;19.57;41.34;101129.88;5098592;28;20531;-70
2022/10/12 10:18:48;;;;;;;7.83;3.13;;;;;;;19.72;41.61;101120.97;5100069;28;20447;-69
2022/10/12 10:21:16;;;;;;;6.87;4.00;;;;;;;19.03;43.40;101110.84;5099944;28;20494;-69
2022/10/12 10:23:45;;;;;;;7.60;3.60;;;;;;;19.22;43.17;101124.97;5099380;28;20498;-70
2022/10/12 10:26:14;;;;;;;7.30;4.00;;;;;;;20.17;41.46;101111.16;5099625;28;20474;-70
2022/10/12 10:28:42;;;;;;;6.20;3.60;;;;;;;21.17;40.08;101104.56;5100128;28;20488;-70
2022/10/12 10:31:20;;;;;;;9.50;4.13;;;;;;;21.83;37.29;101103.66;5098445;28;20465;-70
2022/10/12 10:34:10;;;;;;;7.03;3.50;;;;;;;21.65;38.05;101101.38;5100308;28;20485;-70
2022/10/12 10:36:41;;;;;;;7.63;3.40;;;;;;;21.26;39.40;101097.13;5099502;28;20482;-70
2022/10/12 10:39:16;;;;;;;6.03;3.20;;;;;;;21.72;39.61;101096.03;5097187;28;20541;-70
2022/10/12 10:41:43;;;;;;;6.00;3.13;;;;;;;19.99;42.50;101089.78;5099956;28;20473;-69
2022/10/12 10:44:24;;;;;;;6.83;2.83;;;;;;;22.48;36.32;101085.41;5100196;28;20453;-70
2022/10/12 10:46:51;;;;;;;6.33;2.83;;;;;;;22.44;35.20;101088.72;5098778;28;20474;-70
2022/10/12 10:49:27;;;;;;;6.73;2.73;;;;;;;21.62;37.45;101085.44;5099357;28;20458;-69
2022/10/12 10:51:58;;;;;;;7.50;2.70;;;;;;;20.89;38.82;101090.81;5099731;28;20476;-69
2022/10/12 10:54:30;;;;;;;8.53;3.37;;;;;;;18.89;44.27;101098.84;5098625;28;20453;-70
2022/10/12 10:57:00;;;;;;;7.17;2.83;;;;;;;17.88;45.03;101098.25;5099530;28;20489;-70
2022/10/12 10:59:36;;;;;;;9.47;3.00;;;;;;;17.85;46.48;101089.59;5099533;28;20456;-69
2022/10/12 11:02:12;;;;;;;9.20;2.60;;;;;;;18.95;44.30;101091.88;5098921;28;20475;-70
2022/10/12 11:04:43;;;;;;;7.53;2.37;;;;;;;19.37;43.02;101085.25;5101714;28;20428;-70
2022/10/12 11:07:18;;;;;;;7.00;2.73;;;;;;;19.33;43.87;101090.19;5102710;28;20471;-69
2022/10/12 11:09:48;;;;;;;6.80;3.10;;;;;;;19.22;43.13;101087.00;5102894;28;20481;-69
2022/10/12 11:12:27;;;;;;;6.57;2.53;;;;;;;19.02;43.68;101084.75;5103259;28;20496;-69
2022/10/12 11:14:56;;;;;;;6.77;2.50;;;;;;;19.72;41.93;101075.72;5102539;28;20467;-70
2022/10/12 11:17:27;;;;;;;8.13;3.60;;;;;;;19.09;44.08;101071.34;5102581;28;20489;-69
2022/10/12 11:20:05;;;;;;;5.80;2.93;;;;;;;19.73;43.60;101080.09;5103095;28;20466;-70
2022/10/12 11:22:39;;;;;;;4.97;2.23;;;;;;;19.89;42.10;101073.75;5102865;28;20444;-70
2022/10/12 11:25:10;;;;;;;7.27;2.83;;;;;;;20.21;41.26;101076.38;5102512;28;20481;-70
2022/10/12 11:27:38;;;;;;;7.53;2.27;;;;;;;21.23;39.63;101068.44;5103191;28;20955;-70
2022/10/12 11:30:13;;;;;;;8.87;3.00;;;;;;;20.32;40.99;101059.63;5102266;28;20451;-70
2022/10/12 11:32:41;;;;;;;4.20;2.60;;;;;;;20.43;39.85;101058.31;5102809;28;20458;-69
2022/10/12 11:35:15;;;;;;;8.20;2.43;;;;;;;20.31;41.17;101058.78;5102677;28;20477;-69
2022/10/12 11:37:44;;;;;;;5.13;2.60;;;;;;;20.20;41.35;101055.66;5102342;28;20494;-69